createdAt,value
2023-05-19T00:00:50.604Z,9.444096
2023-05-19T00:01:48.979Z,9.444054
2023-05-19T00:02:49.041Z,9.443995
2023-05-19T00:03:48.945Z,9.443886
2023-05-19T00:04:48.931Z,9.443457
2023-05-19T00:05:48.980Z,9.443419
2023-05-19T00:06:48.937Z,9.443382
2023-05-19T00:07:48.929Z,9.443379
2023-05-19T00:08:48.950Z,9.443365
2023-05-19T00:09:48.919Z,9.443513
2023-05-19T00:10:48.913Z,9.443634
2023-05-19T00:11:48.923Z,9.443564
2023-05-19T00:12:48.905Z,9.443464
2023-05-19T00:13:48.900Z,9.443489
2023-05-19T00:14:48.895Z,9.443392
2023-05-19T00:15:48.915Z,9.443563
2023-05-19T00:16:48.866Z,9.443630
2023-05-19T00:17:48.895Z,9.443685
2023-05-19T00:18:49.913Z,9.443710
2023-05-19T00:19:49.375Z,9.443678
2023-05-19T00:20:48.867Z,9.443686
2023-05-19T00:21:48.840Z,9.443698
2023-05-19T00:22:48.842Z,9.443722
2023-05-19T00:23:48.845Z,9.443726
2023-05-19T00:24:48.838Z,9.443758
2023-05-19T00:25:48.850Z,9.443750
2023-05-19T00:26:48.803Z,9.443710
2023-05-19T00:27:48.808Z,9.443702
2023-05-19T00:28:48.799Z,9.443725
2023-05-19T00:29:48.831Z,9.443771
2023-05-19T00:30:48.802Z,9.443737
2023-05-19T00:31:48.830Z,9.443778
2023-05-19T00:32:48.826Z,9.443778
2023-05-19T00:33:48.781Z,9.443794
2023-05-19T00:34:48.783Z,9.443815
2023-05-19T00:35:48.759Z,9.443820
2023-05-19T00:36:48.745Z,9.443782
2023-05-19T00:37:48.786Z,9.443689
2023-05-19T00:38:48.745Z,9.443686
2023-05-19T00:39:48.731Z,9.443752
2023-05-19T00:40:48.747Z,9.443832
2023-05-19T00:41:48.742Z,9.443863
2023-05-19T00:42:48.768Z,9.443786
2023-05-19T00:43:48.749Z,9.443851
2023-05-19T00:44:48.728Z,9.443745
2023-05-19T00:45:48.717Z,9.443700
2023-05-19T00:46:48.751Z,9.443763
2023-05-19T00:47:48.779Z,9.443761
2023-05-19T00:48:48.710Z,9.443816
2023-05-19T00:49:48.694Z,9.443813
2023-05-19T00:50:48.691Z,9.443857
2023-05-19T00:51:48.691Z,9.443979
2023-05-19T00:52:48.662Z,9.443791
2023-05-19T00:53:48.670Z,9.443606
2023-05-19T00:54:48.659Z,9.443567
2023-05-19T00:55:48.675Z,9.443685
2023-05-19T00:56:48.630Z,9.443810
2023-05-19T00:57:48.633Z,9.443902
2023-05-19T00:58:48.629Z,9.443726
2023-05-19T00:59:48.621Z,9.443768
2023-05-19T01:00:48.648Z,9.443810
2023-05-19T01:01:48.600Z,9.443673
2023-05-19T01:02:48.720Z,9.443550
2023-05-19T01:03:48.780Z,9.443535
2023-05-19T01:04:48.606Z,9.443475
2023-05-19T01:05:48.636Z,9.443549
2023-05-19T01:06:48.669Z,9.443510
2023-05-19T01:07:48.567Z,9.443597
2023-05-19T01:08:48.578Z,9.443716
2023-05-19T01:09:48.576Z,9.443725
2023-05-19T01:10:48.550Z,9.443784
2023-05-19T01:11:48.550Z,9.443681
2023-05-19T01:12:48.557Z,9.443662
2023-05-19T01:13:48.973Z,9.443467
2023-05-19T01:14:49.396Z,9.443674
2023-05-19T01:15:48.556Z,9.443742
2023-05-19T01:16:48.712Z,9.443693
2023-05-19T01:17:48.570Z,9.443793
2023-05-19T01:18:48.551Z,9.443948
2023-05-19T01:19:48.540Z,9.443880
2023-05-19T01:20:48.510Z,9.443780
2023-05-19T01:21:48.498Z,9.443770
2023-05-19T01:22:49.408Z,9.443767
2023-05-19T01:23:48.488Z,9.443747
2023-05-19T01:24:49.392Z,9.443711
2023-05-19T01:25:48.556Z,9.443752
2023-05-19T01:26:48.462Z,9.443732
2023-05-19T01:27:48.485Z,9.443778
2023-05-19T01:28:48.458Z,9.443957
2023-05-19T01:29:48.530Z,9.443805
2023-05-19T01:30:48.451Z,9.443794
2023-05-19T01:31:48.525Z,9.443813
2023-05-19T01:32:48.529Z,9.443811
2023-05-19T01:33:48.428Z,9.443807
2023-05-19T01:34:49.405Z,9.443777
2023-05-19T01:35:48.492Z,9.443722
2023-05-19T01:36:48.417Z,9.443624
2023-05-19T01:37:48.414Z,9.443794
2023-05-19T01:38:48.410Z,9.443788
2023-05-19T01:39:49.390Z,9.443811
2023-05-19T01:40:48.437Z,9.443835
2023-05-19T01:41:48.373Z,9.443870
2023-05-19T01:42:48.370Z,9.443860
2023-05-19T01:43:48.392Z,9.443734
2023-05-19T01:44:49.378Z,9.443736
2023-05-19T01:45:48.482Z,9.443757
2023-05-19T01:46:48.342Z,9.443738
2023-05-19T01:47:48.378Z,9.443722
2023-05-19T01:48:48.319Z,9.443748
2023-05-19T01:49:48.356Z,9.443728
2023-05-19T01:50:48.341Z,9.443802
2023-05-19T01:51:48.302Z,9.443767
2023-05-19T01:52:48.326Z,9.443630
2023-05-19T01:53:48.298Z,9.443690
2023-05-19T01:54:48.962Z,9.443657
2023-05-19T01:55:48.440Z,9.443740
2023-05-19T01:56:48.274Z,9.443715
2023-05-19T01:57:48.258Z,9.443764
2023-05-19T01:58:48.266Z,9.443702
2023-05-19T01:59:48.332Z,9.443729
2023-05-19T02:00:48.292Z,9.443711
2023-05-19T02:01:48.301Z,9.443713
2023-05-19T02:02:48.246Z,9.443763
2023-05-19T02:03:48.282Z,9.443712
2023-05-19T02:04:49.039Z,9.443659
2023-05-19T02:05:48.277Z,9.443676
2023-05-19T02:06:48.209Z,9.443741
2023-05-19T02:07:48.212Z,9.443660
2023-05-19T02:08:48.213Z,9.443655
2023-05-19T02:09:48.264Z,9.443585
2023-05-19T02:10:48.189Z,9.443618
2023-05-19T02:11:48.184Z,9.443680
2023-05-19T02:12:48.172Z,9.443687
2023-05-19T02:13:48.181Z,9.443698
2023-05-19T02:14:48.179Z,9.443636
2023-05-19T02:15:48.200Z,9.443662
2023-05-19T02:16:48.381Z,9.443651
2023-05-19T02:17:48.322Z,9.443613
2023-05-19T02:18:48.175Z,9.443666
2023-05-19T02:19:48.267Z,9.443754
2023-05-19T02:20:48.133Z,9.443705
2023-05-19T02:21:49.153Z,9.443658
2023-05-19T02:22:48.138Z,9.443637
2023-05-19T02:23:48.108Z,9.443638
2023-05-19T02:24:48.153Z,9.443686
2023-05-19T02:25:48.105Z,9.443597
2023-05-19T02:26:48.091Z,9.443640
2023-05-19T02:27:48.107Z,9.443697
2023-05-19T02:28:48.101Z,9.443677
2023-05-19T02:29:48.074Z,9.443694
2023-05-19T02:30:48.054Z,9.443595
2023-05-19T02:31:48.144Z,9.443599
2023-05-19T02:32:48.165Z,9.443606
2023-05-19T02:33:48.050Z,9.443595
2023-05-19T02:34:48.045Z,9.443623
2023-05-19T02:35:48.046Z,9.443670
2023-05-19T02:36:48.045Z,9.443686
2023-05-19T02:37:48.086Z,9.443630
2023-05-19T02:38:48.028Z,9.443542
2023-05-19T02:39:48.040Z,9.443573
2023-05-19T02:40:48.008Z,9.443586
2023-05-19T02:41:48.002Z,9.443509
2023-05-19T02:42:48.020Z,9.443563
2023-05-19T02:43:47.973Z,9.443529
2023-05-19T02:44:47.986Z,9.443476
2023-05-19T02:45:47.986Z,9.443537
2023-05-19T02:46:48.030Z,9.443448
2023-05-19T02:47:47.998Z,9.443385
2023-05-19T02:48:47.970Z,9.443487
2023-05-19T02:49:47.989Z,9.443688
2023-05-19T02:50:47.947Z,9.443686
2023-05-19T02:51:47.945Z,9.443603
2023-05-19T02:52:47.927Z,9.443346
2023-05-19T02:53:47.931Z,9.443447
2023-05-19T02:54:47.949Z,9.443395
2023-05-19T02:55:47.938Z,9.443211
2023-05-19T02:56:47.929Z,9.443405
2023-05-19T02:57:47.944Z,9.443419
2023-05-19T02:58:47.928Z,9.443433
2023-05-19T02:59:47.895Z,9.443449
2023-05-19T03:00:47.929Z,9.443564
2023-05-19T03:01:47.922Z,9.443601
2023-05-19T03:02:47.987Z,9.443697
2023-05-19T03:03:48.011Z,9.443650
2023-05-19T03:04:47.868Z,9.443660
2023-05-19T03:05:47.884Z,9.443697
2023-05-19T03:06:47.850Z,9.443727
2023-05-19T03:07:47.851Z,9.443696
2023-05-19T03:08:47.832Z,9.443811
2023-05-19T03:09:47.836Z,9.443741
2023-05-19T03:10:47.817Z,9.443711
2023-05-19T03:11:47.833Z,9.443780
2023-05-19T03:12:48.855Z,9.443757
2023-05-19T03:13:47.836Z,9.443777
2023-05-19T03:14:47.820Z,9.443740
2023-05-19T03:15:47.853Z,9.443719
2023-05-19T03:16:47.889Z,9.443745
2023-05-19T03:17:47.842Z,9.443712
2023-05-19T03:18:47.898Z,9.443687
2023-05-19T03:19:47.846Z,9.443718
2023-05-19T03:20:47.775Z,9.443798
2023-05-19T03:21:47.768Z,9.443759
2023-05-19T03:22:47.744Z,9.443694
2023-05-19T03:23:47.759Z,9.443628
2023-05-19T03:24:47.738Z,9.443727
2023-05-19T03:25:47.729Z,9.443758
2023-05-19T03:26:47.786Z,9.443768
2023-05-19T03:27:47.760Z,9.443754
2023-05-19T03:28:47.737Z,9.443749
2023-05-19T03:29:47.725Z,9.443716
2023-05-19T03:30:47.704Z,9.443771
2023-05-19T03:31:47.700Z,9.443739
2023-05-19T03:32:47.866Z,9.443695
2023-05-19T03:33:47.728Z,9.443657
2023-05-19T03:34:47.904Z,9.443650
2023-05-19T03:35:47.663Z,9.443651
2023-05-19T03:36:47.692Z,9.443656
2023-05-19T03:37:47.696Z,9.443719
2023-05-19T03:38:47.660Z,9.443743
2023-05-19T03:39:48.341Z,9.443727
2023-05-19T03:40:47.642Z,9.443729
2023-05-19T03:41:47.665Z,9.443697
2023-05-19T03:42:47.747Z,9.443762
2023-05-19T03:43:47.649Z,9.443860
2023-05-19T03:44:48.387Z,9.443753
2023-05-19T03:45:47.647Z,9.443693
2023-05-19T03:46:47.607Z,9.443698
2023-05-19T03:47:47.670Z,9.443675
2023-05-19T03:48:47.611Z,9.443654
2023-05-19T03:49:48.382Z,9.443654
2023-05-19T03:50:47.606Z,9.443731
2023-05-19T03:51:47.588Z,9.443637
2023-05-19T03:52:47.573Z,9.443547
2023-05-19T03:53:47.556Z,9.443542
2023-05-19T03:54:48.285Z,9.443635
2023-05-19T03:55:47.557Z,9.443548
2023-05-19T03:56:47.541Z,9.443610
2023-05-19T03:57:47.579Z,9.443578
2023-05-19T03:58:47.550Z,9.443616
2023-05-19T03:59:48.328Z,9.443602
2023-05-19T04:00:47.511Z,9.443633
2023-05-19T04:01:47.548Z,9.443638
2023-05-19T04:02:47.559Z,9.443685
2023-05-19T04:03:47.572Z,9.443614
2023-05-19T04:04:47.668Z,9.443523
2023-05-19T04:05:47.602Z,9.443428
2023-05-19T04:06:47.509Z,9.443584
2023-05-19T04:07:47.484Z,9.443611
2023-05-19T04:08:47.488Z,9.443650
2023-05-19T04:09:47.585Z,9.443665
2023-05-19T04:10:47.469Z,9.443640
2023-05-19T04:11:47.472Z,9.443681
2023-05-19T04:12:47.441Z,9.443722
2023-05-19T04:13:47.443Z,9.443586
2023-05-19T04:14:47.467Z,9.443569
2023-05-19T04:15:47.492Z,9.443561
2023-05-19T04:16:47.431Z,9.443567
2023-05-19T04:17:47.427Z,9.443646
2023-05-19T04:18:47.543Z,9.443751
2023-05-19T04:19:47.412Z,9.443660
2023-05-19T04:20:47.409Z,9.443658
2023-05-19T04:21:47.387Z,9.443588
2023-05-19T04:22:47.376Z,9.443706
2023-05-19T04:23:47.402Z,9.443617
2023-05-19T04:24:47.408Z,9.443579
2023-05-19T04:25:47.359Z,9.443786
2023-05-19T04:26:47.389Z,9.443735
2023-05-19T04:27:47.362Z,9.443621
2023-05-19T04:28:47.461Z,9.443635
2023-05-19T04:29:47.373Z,9.443674
2023-05-19T04:30:47.365Z,9.443708
2023-05-19T04:31:47.363Z,9.443696
2023-05-19T04:32:47.331Z,9.443600
2023-05-19T04:33:47.317Z,9.443573
2023-05-19T04:34:47.313Z,9.443614
2023-05-19T04:35:47.302Z,9.443655
2023-05-19T04:36:47.310Z,9.443611
2023-05-19T04:37:47.341Z,9.443672
2023-05-19T04:38:47.898Z,9.443589
2023-05-19T04:39:47.261Z,9.443581
2023-05-19T04:40:47.293Z,9.443558
2023-05-19T04:41:47.278Z,9.443658
2023-05-19T04:42:47.238Z,9.443749
2023-05-19T04:43:47.296Z,9.443624
2023-05-19T04:44:47.247Z,9.443605
2023-05-19T04:45:47.248Z,9.443536
2023-05-19T04:46:47.267Z,9.443619
2023-05-19T04:47:47.281Z,9.443689
2023-05-19T04:48:47.222Z,9.443371
2023-05-19T04:49:47.216Z,9.443503
2023-05-19T04:50:47.211Z,9.443604
2023-05-19T04:51:47.217Z,9.443547
2023-05-19T04:52:47.200Z,9.443532
2023-05-19T04:53:48.188Z,9.443634
2023-05-19T04:54:47.214Z,9.443640
2023-05-19T04:55:47.169Z,9.443658
2023-05-19T04:56:47.179Z,9.443713
2023-05-19T04:57:47.174Z,9.443664
2023-05-19T04:58:47.169Z,9.443664
2023-05-19T04:59:47.172Z,9.443609
2023-05-19T05:00:47.172Z,9.443584
2023-05-19T05:01:48.202Z,9.443712
2023-05-19T05:02:47.243Z,9.443602
2023-05-19T05:03:47.173Z,9.443600
2023-05-19T05:04:47.130Z,9.443540
2023-05-19T05:05:47.119Z,9.443607
2023-05-19T05:06:47.150Z,9.443616
2023-05-19T05:07:47.118Z,9.443682
2023-05-19T05:08:47.122Z,9.443573
2023-05-19T05:09:47.118Z,9.443612
2023-05-19T05:10:47.099Z,9.443661
2023-05-19T05:11:47.081Z,9.443786
2023-05-19T05:12:47.064Z,9.443776
2023-05-19T05:13:47.077Z,9.443737
2023-05-19T05:14:47.080Z,9.443593
2023-05-19T05:15:47.075Z,9.443625
2023-05-19T05:16:47.137Z,9.443640
2023-05-19T05:17:47.110Z,9.443727
2023-05-19T05:18:47.118Z,9.443708
2023-05-19T05:19:47.059Z,9.443702
2023-05-19T05:20:47.040Z,9.443718
2023-05-19T05:21:47.061Z,9.443398
2023-05-19T05:22:47.020Z,9.443575
2023-05-19T05:23:47.002Z,9.443677
2023-05-19T05:24:47.350Z,9.443564
2023-05-19T05:25:46.984Z,9.443464
2023-05-19T05:26:46.994Z,9.443542
2023-05-19T05:27:47.002Z,9.443653
2023-05-19T05:28:46.974Z,9.443709
2023-05-19T05:29:47.005Z,9.443578
2023-05-19T05:30:46.962Z,9.443645
2023-05-19T05:31:46.981Z,9.443428
2023-05-19T05:32:47.010Z,9.443582
2023-05-19T05:33:47.058Z,9.443681
2023-05-19T05:34:46.947Z,9.443618
2023-05-19T05:35:46.993Z,9.443672
2023-05-19T05:36:46.956Z,9.443635
2023-05-19T05:37:46.939Z,9.443616
2023-05-19T05:38:46.914Z,9.443613
2023-05-19T05:39:46.912Z,9.443562
2023-05-19T05:40:46.940Z,9.443624
2023-05-19T05:41:46.905Z,9.443639
2023-05-19T05:42:46.892Z,9.443652
2023-05-19T05:43:46.922Z,9.443591
2023-05-19T05:44:46.885Z,9.443661
2023-05-19T05:45:46.901Z,9.443587
2023-05-19T05:46:46.898Z,9.443655
2023-05-19T05:47:47.002Z,9.443768
2023-05-19T05:48:46.864Z,9.443765
2023-05-19T05:49:46.888Z,9.443692
2023-05-19T05:50:46.901Z,9.443819
2023-05-19T05:51:57.965Z,9.443720
2023-05-19T05:52:48.893Z,9.443643
2023-05-19T05:53:46.866Z,9.443631
2023-05-19T05:54:46.830Z,9.443697
2023-05-19T05:55:46.879Z,9.443687
2023-05-19T05:56:46.831Z,9.443777
2023-05-19T05:57:47.397Z,9.443709
2023-05-19T05:58:46.865Z,9.443755
2023-05-19T05:59:46.788Z,9.443620
2023-05-19T06:00:46.792Z,9.443614
2023-05-19T06:01:46.831Z,9.443604
2023-05-19T06:02:46.875Z,9.443586
2023-05-19T06:03:46.908Z,9.443706
2023-05-19T06:04:46.768Z,9.443830
2023-05-19T06:05:46.815Z,9.443778
2023-05-19T06:06:47.839Z,9.443702
2023-05-19T06:07:46.799Z,9.443699
2023-05-19T06:08:46.742Z,9.443660
2023-05-19T06:09:46.775Z,9.443642
2023-05-19T06:10:47.546Z,9.443679
2023-05-19T06:11:47.844Z,9.443713
2023-05-19T06:12:46.719Z,9.443657
2023-05-19T06:13:47.487Z,9.443639
2023-05-19T06:14:46.770Z,9.443717
2023-05-19T06:15:46.763Z,9.443681
2023-05-19T06:16:46.754Z,9.443693
2023-05-19T06:17:49.616Z,9.443694
2023-05-19T06:18:46.766Z,9.443757
2023-05-19T06:19:46.704Z,9.443742
2023-05-19T06:20:46.695Z,9.443761
2023-05-19T06:21:46.670Z,9.443748
2023-05-19T06:22:46.694Z,9.443703
2023-05-19T06:23:46.717Z,9.443682
2023-05-19T06:24:46.657Z,9.443726
2023-05-19T06:25:46.649Z,9.443680
2023-05-19T06:26:46.684Z,9.443697
2023-05-19T06:27:46.652Z,9.443645
2023-05-19T06:28:46.657Z,9.443645
2023-05-19T06:29:46.641Z,9.443592
2023-05-19T06:30:46.652Z,9.443681
2023-05-19T06:31:46.691Z,9.443650
2023-05-19T06:32:46.651Z,9.443644
2023-05-19T06:33:46.614Z,9.443663
2023-05-19T06:34:46.648Z,9.443660
2023-05-19T06:35:46.677Z,9.443633
2023-05-19T06:36:46.627Z,9.443648
2023-05-19T06:37:46.584Z,9.443770
2023-05-19T06:38:46.612Z,9.443771
2023-05-19T06:39:46.615Z,9.443660
2023-05-19T06:40:46.618Z,9.443610
2023-05-19T06:41:46.581Z,9.443675
2023-05-19T06:42:47.393Z,9.443662
2023-05-19T06:43:46.527Z,9.443682
2023-05-19T06:44:46.535Z,9.443654
2023-05-19T06:45:46.566Z,9.443661
2023-05-19T06:46:46.614Z,9.443697
2023-05-19T06:47:46.532Z,9.443637
2023-05-19T06:48:47.493Z,9.443655
2023-05-19T06:49:46.501Z,9.443702
2023-05-19T06:50:46.497Z,9.443645
2023-05-19T06:51:46.505Z,9.443647
2023-05-19T06:52:46.486Z,9.443672
2023-05-19T06:53:46.479Z,9.443678
2023-05-19T06:54:46.472Z,9.443618
2023-05-19T06:55:57.911Z,9.443591
2023-05-19T06:56:48.465Z,9.443620
2023-05-19T06:57:46.554Z,9.443643
2023-05-19T06:58:46.455Z,9.443686
2023-05-19T06:59:46.448Z,9.443750
2023-05-19T07:00:46.477Z,9.443739
2023-05-19T07:01:46.478Z,9.443691
2023-05-19T07:02:46.580Z,9.443744
2023-05-19T07:03:46.525Z,9.443643
2023-05-19T07:04:46.426Z,9.443549
2023-05-19T07:05:46.398Z,9.443595
2023-05-19T07:06:46.374Z,9.443681
2023-05-19T07:07:46.466Z,9.443653
2023-05-19T07:08:46.451Z,9.443676
2023-05-19T07:09:46.363Z,9.443624
2023-05-19T07:10:46.391Z,9.443741
2023-05-19T07:11:46.412Z,9.443788
2023-05-19T07:12:46.351Z,9.443599
2023-05-19T07:13:46.383Z,9.443653
2023-05-19T07:14:46.350Z,9.443719
2023-05-19T07:15:47.383Z,9.443709
2023-05-19T07:16:46.658Z,9.443644
2023-05-19T07:17:46.358Z,9.443591
2023-05-19T07:18:46.352Z,9.443729
2023-05-19T07:19:46.394Z,9.443723
2023-05-19T07:20:46.392Z,9.443752
2023-05-19T07:21:46.376Z,9.443757
2023-05-19T07:22:46.508Z,9.443713
2023-05-19T07:23:46.274Z,9.443733
2023-05-19T07:24:46.304Z,9.443789
2023-05-19T07:25:46.269Z,9.443746
2023-05-19T07:26:46.286Z,9.443759
2023-05-19T07:27:46.233Z,9.443817
2023-05-19T07:28:46.645Z,9.443847
2023-05-19T07:29:46.257Z,9.443810
2023-05-19T07:30:46.243Z,9.443792
2023-05-19T07:31:46.327Z,9.443797
2023-05-19T07:32:46.289Z,9.443766
2023-05-19T07:33:46.248Z,9.443836
2023-05-19T07:34:46.196Z,9.443833
2023-05-19T07:35:46.214Z,9.443822
2023-05-19T07:36:46.218Z,9.443754
2023-05-19T07:37:46.193Z,9.443787
2023-05-19T07:38:46.251Z,9.443778
2023-05-19T07:39:46.234Z,9.443759
2023-05-19T07:40:46.256Z,9.443760
2023-05-19T07:41:46.215Z,9.443818
2023-05-19T07:42:46.197Z,9.443836
2023-05-19T07:43:46.160Z,9.443829
2023-05-19T07:44:46.153Z,9.443780
2023-05-19T07:45:46.176Z,9.443750
2023-05-19T07:46:47.266Z,9.443789
2023-05-19T07:47:46.174Z,9.443807
2023-05-19T07:48:46.123Z,9.443756
2023-05-19T07:49:46.162Z,9.443842
2023-05-19T07:50:46.135Z,9.443799
2023-05-19T07:51:46.215Z,9.443810
2023-05-19T07:52:46.108Z,9.443846
2023-05-19T07:53:46.099Z,9.443849
2023-05-19T07:54:46.091Z,9.443844
2023-05-19T07:55:46.204Z,9.443855
2023-05-19T07:56:46.100Z,9.444037
2023-05-19T07:57:46.173Z,9.444036
2023-05-19T07:58:46.137Z,9.443978
2023-05-19T07:59:46.264Z,9.444008
2023-05-19T08:00:46.107Z,9.444179
2023-05-19T08:01:46.042Z,9.444030
2023-05-19T08:02:46.178Z,9.443817
2023-05-19T08:03:46.192Z,9.443576
2023-05-19T08:04:46.056Z,9.443245
2023-05-19T08:05:46.027Z,9.443347
2023-05-19T08:06:46.001Z,9.443462
2023-05-19T08:07:45.998Z,9.443476
2023-05-19T08:08:46.044Z,9.443675
2023-05-19T08:09:46.024Z,9.443997
2023-05-19T08:10:45.965Z,9.443845
2023-05-19T08:11:46.029Z,9.443792
2023-05-19T08:12:45.957Z,9.443766
2023-05-19T08:13:45.963Z,9.443799
2023-05-19T08:14:45.954Z,9.443766
2023-05-19T08:15:45.975Z,9.443761
2023-05-19T08:16:45.970Z,9.443776
2023-05-19T08:17:45.999Z,9.443781
2023-05-19T08:18:46.012Z,9.443760
2023-05-19T08:19:45.961Z,9.443728
2023-05-19T08:20:46.000Z,9.443748
2023-05-19T08:21:45.947Z,9.443750
2023-05-19T08:22:45.933Z,9.443758
2023-05-19T08:23:45.922Z,9.443666
2023-05-19T08:24:45.952Z,9.443662
2023-05-19T08:25:46.025Z,9.443652
2023-05-19T08:26:45.951Z,9.443658
2023-05-19T08:27:45.928Z,9.443680
2023-05-19T08:28:45.867Z,9.443670
2023-05-19T08:29:45.885Z,9.443800
2023-05-19T08:30:45.974Z,9.443831
2023-05-19T08:31:46.008Z,9.443764
2023-05-19T08:32:45.918Z,9.443682
2023-05-19T08:33:45.951Z,9.443641
2023-05-19T08:34:45.890Z,9.443624
2023-05-19T08:35:45.912Z,9.443600
2023-05-19T08:36:45.921Z,9.443598
2023-05-19T08:37:45.863Z,9.443638
2023-05-19T08:38:46.090Z,9.443645
2023-05-19T08:39:45.852Z,9.443592
2023-05-19T08:40:45.859Z,9.443517
2023-05-19T08:41:45.906Z,9.443575
2023-05-19T08:42:45.875Z,9.443608
2023-05-19T08:43:45.791Z,9.443654
2023-05-19T08:44:45.794Z,9.443666
2023-05-19T08:45:45.784Z,9.443683
2023-05-19T08:46:45.843Z,9.443701
2023-05-19T08:47:45.803Z,9.443703
2023-05-19T08:48:45.777Z,9.443707
2023-05-19T08:49:45.762Z,9.443706
2023-05-19T08:50:45.764Z,9.443670
2023-05-19T08:51:45.756Z,9.443645
2023-05-19T08:52:49.495Z,9.443737
2023-05-19T08:53:46.741Z,9.443655
2023-05-19T08:54:45.724Z,9.443668
2023-05-19T08:55:45.706Z,9.443777
2023-05-19T08:56:45.809Z,9.443826
2023-05-19T08:57:45.729Z,9.443782
2023-05-19T08:58:45.692Z,9.443748
2023-05-19T08:59:45.716Z,9.443666
2023-05-19T09:00:45.697Z,9.443703
2023-05-19T09:01:46.534Z,9.443696
2023-05-19T09:02:55.172Z,9.443668
2023-05-19T09:03:47.684Z,9.443645
2023-05-19T09:04:45.742Z,9.443761
2023-05-19T09:05:45.687Z,9.443761
2023-05-19T09:06:45.625Z,9.443724
2023-05-19T09:07:46.456Z,9.443771
2023-05-19T09:08:45.590Z,9.443742
2023-05-19T09:09:45.654Z,9.443631
2023-05-19T09:10:45.622Z,9.443655
2023-05-19T09:11:46.492Z,9.443703
2023-05-19T09:12:45.583Z,9.443792
2023-05-19T09:13:45.611Z,9.443707
2023-05-19T09:14:45.568Z,9.443669
2023-05-19T09:15:45.689Z,9.443649
2023-05-19T09:16:45.615Z,9.443697
2023-05-19T09:17:45.609Z,9.443633
2023-05-19T09:18:45.613Z,9.443630
2023-05-19T09:19:45.573Z,9.443686
2023-05-19T09:20:45.564Z,9.443676
2023-05-19T09:21:45.703Z,9.443694
2023-05-19T09:22:45.565Z,9.443708
2023-05-19T09:23:45.566Z,9.443668
2023-05-19T09:24:45.522Z,9.443675
2023-05-19T09:25:45.510Z,9.443629
2023-05-19T09:26:45.530Z,9.443606
2023-05-19T09:27:45.512Z,9.443585
2023-05-19T09:28:45.510Z,9.443609
2023-05-19T09:29:45.556Z,9.443644
2023-05-19T09:30:45.524Z,9.443688
2023-05-19T09:31:45.649Z,9.443651
2023-05-19T09:32:45.523Z,9.443657
2023-05-19T09:33:46.081Z,9.443667
2023-05-19T09:34:46.499Z,9.443730
2023-05-19T09:35:45.494Z,9.443700
2023-05-19T09:36:45.485Z,9.443680
2023-05-19T09:37:45.470Z,9.443654
2023-05-19T09:38:45.454Z,9.443696
2023-05-19T09:39:45.450Z,9.443736
2023-05-19T09:40:45.414Z,9.443716
2023-05-19T09:41:45.494Z,9.443729
2023-05-19T09:42:45.409Z,9.443732
2023-05-19T09:43:45.403Z,9.443721
2023-05-19T09:44:45.497Z,9.443729
2023-05-19T09:45:45.443Z,9.443789
2023-05-19T09:46:45.436Z,9.443711
2023-05-19T09:47:45.412Z,9.443748
2023-05-19T09:48:45.408Z,9.443628
2023-05-19T09:49:45.387Z,9.443667
2023-05-19T09:50:45.361Z,9.443608
2023-05-19T09:51:45.357Z,9.443670
2023-05-19T09:52:45.369Z,9.443665
2023-05-19T09:53:45.349Z,9.443680
2023-05-19T09:54:45.376Z,9.443690
2023-05-19T09:55:45.330Z,9.443709
2023-05-19T09:56:45.384Z,9.443693
2023-05-19T09:57:45.375Z,9.443729
2023-05-19T09:58:45.572Z,9.443723
2023-05-19T09:59:45.320Z,9.443739
2023-05-19T10:00:45.386Z,9.443678
2023-05-19T10:01:45.357Z,9.443627
2023-05-19T10:02:45.467Z,9.443687
2023-05-19T10:03:45.309Z,9.443780
2023-05-19T10:04:45.879Z,9.443668
2023-05-19T10:05:45.293Z,9.443735
2023-05-19T10:06:45.522Z,9.443678
2023-05-19T10:07:46.040Z,9.443758
2023-05-19T10:08:45.270Z,9.443762
2023-05-19T10:09:45.278Z,9.443789
2023-05-19T10:10:45.265Z,9.443660
2023-05-19T10:11:45.584Z,9.443587
2023-05-19T10:12:45.241Z,9.443517
2023-05-19T10:13:45.260Z,9.443420
2023-05-19T10:14:45.245Z,9.443549
2023-05-19T10:15:57.024Z,9.443546
2023-05-19T10:16:47.251Z,9.443688
2023-05-19T10:17:45.273Z,9.443686
2023-05-19T10:18:45.219Z,9.443656
2023-05-19T10:19:45.204Z,9.443689
2023-05-19T10:20:45.196Z,9.443674
2023-05-19T10:21:45.172Z,9.443691
2023-05-19T10:22:45.990Z,9.443664
2023-05-19T10:23:45.172Z,9.443727
2023-05-19T10:24:45.305Z,9.443698
2023-05-19T10:25:45.168Z,9.443707
2023-05-19T10:26:45.152Z,9.443573
2023-05-19T10:27:45.137Z,9.443572
2023-05-19T10:28:45.166Z,9.443729
2023-05-19T10:29:45.152Z,9.443630
2023-05-19T10:30:45.104Z,9.443613
2023-05-19T10:31:45.166Z,9.443622
2023-05-19T10:32:45.224Z,9.443667
2023-05-19T10:33:45.122Z,9.443607
2023-05-19T10:34:45.154Z,9.443671
2023-05-19T10:35:46.055Z,9.443683
2023-05-19T10:36:46.190Z,9.443735
2023-05-19T10:37:45.085Z,9.443708
2023-05-19T10:38:46.190Z,9.443678
2023-05-19T10:39:45.500Z,9.443650
2023-05-19T10:40:45.059Z,9.443625
2023-05-19T10:41:45.723Z,9.443693
2023-05-19T10:42:45.154Z,9.443629
2023-05-19T10:43:46.379Z,9.443623
2023-05-19T10:44:45.077Z,9.443666
2023-05-19T10:45:45.031Z,9.443662
2023-05-19T10:46:45.091Z,9.443616
2023-05-19T10:47:45.976Z,9.443660
2023-05-19T10:48:45.007Z,9.443627
2023-05-19T10:49:45.033Z,9.443617
2023-05-19T10:50:45.000Z,9.443602
2023-05-19T10:51:44.997Z,9.443737
2023-05-19T10:52:45.011Z,9.443723
2023-05-19T10:53:44.980Z,9.443655
2023-05-19T10:54:44.981Z,9.443628
2023-05-19T10:55:44.962Z,9.443629
2023-05-19T10:56:44.951Z,9.443735
2023-05-19T10:57:45.490Z,9.443666
2023-05-19T10:58:44.974Z,9.443719
2023-05-19T10:59:45.009Z,9.443616
2023-05-19T11:00:45.154Z,9.443583
2023-05-19T11:01:45.015Z,9.443544
2023-05-19T11:02:44.955Z,9.443560
2023-05-19T11:03:44.937Z,9.443591
2023-05-19T11:04:45.003Z,9.443629
2023-05-19T11:05:44.900Z,9.443649
2023-05-19T11:06:44.935Z,9.443686
2023-05-19T11:07:44.951Z,9.443682
2023-05-19T11:08:44.947Z,9.443691
2023-05-19T11:09:45.522Z,9.443705
2023-05-19T11:10:44.911Z,9.443708
2023-05-19T11:11:44.918Z,9.443699
2023-05-19T11:12:44.879Z,9.443705
2023-05-19T11:13:44.859Z,9.443722
2023-05-19T11:14:45.052Z,9.443678
2023-05-19T11:15:44.851Z,9.443653
2023-05-19T11:16:44.910Z,9.443651
2023-05-19T11:17:44.856Z,9.443677
2023-05-19T11:18:44.935Z,9.443697
2023-05-19T11:19:44.864Z,9.443697
2023-05-19T11:20:44.828Z,9.443728
2023-05-19T11:21:44.816Z,9.443731
2023-05-19T11:22:44.840Z,9.443679
2023-05-19T11:23:44.836Z,9.443688
2023-05-19T11:24:44.883Z,9.443699
2023-05-19T11:25:44.869Z,9.443711
2023-05-19T11:26:45.341Z,9.443712
2023-05-19T11:27:44.846Z,9.443696
2023-05-19T11:28:44.786Z,9.443690
2023-05-19T11:29:47.588Z,9.443695
2023-05-19T11:30:44.896Z,9.443681
2023-05-19T11:31:44.836Z,9.443703
2023-05-19T11:32:44.778Z,9.443686
2023-05-19T11:33:44.736Z,9.443680
2023-05-19T11:34:44.760Z,9.443701
2023-05-19T11:35:44.728Z,9.443685
2023-05-19T11:36:44.749Z,9.443699
2023-05-19T11:37:44.711Z,9.443668
2023-05-19T11:38:44.695Z,9.443691
2023-05-19T11:39:44.685Z,9.443690
2023-05-19T11:40:44.675Z,9.443710
2023-05-19T11:41:44.727Z,9.443723
2023-05-19T11:42:44.688Z,9.443721
2023-05-19T11:43:44.664Z,9.443707
2023-05-19T11:44:44.742Z,9.443727